Time;durP1;ratioP1;P1;durP2;ratioP2;P2;SDS_P1;SDS_P2;PMS_P1;PMS_P2;Temp;Humidity;BMP_temperature;BMP_pressure;BME280_temperature;BME280_humidity;BME280_pressure;Samples;Min_cycle;Max_cycle;Signal;HPM_P1;HPM_P2
2021/06/16 00:00:15;;;;;;;13.52;12.43;;;19.80;99.90;;;;;;5065819;28;20056;-66
2021/06/16 00:02:43;;;;;;;14.10;12.77;;;19.80;99.90;;;;;;5068524;28;20098;-66
2021/06/16 00:05:18;;;;;;;13.77;12.77;;;19.80;99.90;;;;;;5064442;28;20048;-66
2021/06/16 00:07:45;;;;;;;15.25;13.75;;;19.80;99.90;;;;;;5060997;28;20044;-66
2021/06/16 00:10:14;;;;;;;14.25;12.98;;;19.80;99.90;;;;;;5065397;28;20044;-67
2021/06/16 00:12:42;;;;;;;14.25;12.95;;;19.80;99.90;;;;;;5063586;28;20044;-66
2021/06/16 00:15:16;;;;;;;13.75;12.65;;;19.80;99.90;;;;;;5061095;28;20060;-66
2021/06/16 00:17:45;;;;;;;14.13;12.98;;;19.80;99.90;;;;;;5069558;28;20091;-68
2021/06/16 00:20:13;;;;;;;13.77;12.57;;;19.80;99.90;;;;;;5064728;28;20048;-67
2021/06/16 00:22:42;;;;;;;13.27;12.07;;;19.80;99.90;;;;;;5070496;28;20518;-66
2021/06/16 00:25:09;;;;;;;13.52;12.40;;;19.70;99.90;;;;;;5069565;28;20045;-66
2021/06/16 00:27:37;;;;;;;14.02;12.93;;;19.70;99.90;;;;;;5073293;28;20135;-67
2021/06/16 00:30:10;;;;;;;13.70;12.60;;;19.60;99.90;;;;;;5069614;28;20368;-67
2021/06/16 00:32:39;;;;;;;13.82;12.52;;;19.60;99.90;;;;;;5067469;28;20055;-67
2021/06/16 00:35:07;;;;;;;13.70;12.50;;;19.50;99.90;;;;;;5056004;28;20415;-67
2021/06/16 00:37:35;;;;;;;13.88;12.77;;;19.50;99.90;;;;;;5068808;28;20052;-67
2021/06/16 00:40:08;;;;;;;13.68;12.68;;;19.40;99.90;;;;;;5070145;28;20113;-67
2021/06/16 00:42:36;;;;;;;14.52;13.30;;;19.40;99.90;;;;;;5067324;28;20045;-67
2021/06/16 00:45:07;;;;;;;14.30;13.10;;;19.30;99.90;;;;;;5049508;28;20052;-67
2021/06/16 00:47:34;;;;;;;13.35;12.35;;;19.30;99.90;;;;;;5068152;28;20070;-67
2021/06/16 00:50:06;;;;;;;14.23;13.07;;;19.30;99.90;;;;;;5070916;28;20047;-67
2021/06/16 00:52:35;;;;;;;14.25;13.05;;;19.20;99.90;;;;;;5085128;28;20055;-67
2021/06/16 00:55:04;;;;;;;13.13;12.23;;;19.20;99.90;;;;;;5070875;28;20052;-67
2021/06/16 00:57:31;;;;;;;14.00;12.80;;;19.20;99.90;;;;;;5079069;28;20530;-67
2021/06/16 01:00:24;;;;;;;13.77;12.68;;;19.20;99.90;;;;;;5069117;28;20110;-67
2021/06/16 01:03:12;;;;;;;13.82;12.65;;;19.20;99.90;;;;;;5065547;28;20036;-67
2021/06/16 01:05:47;;;;;;;13.43;12.23;;;19.20;99.90;;;;;;5066914;28;20040;-67
2021/06/16 01:08:25;;;;;;;13.85;12.75;;;19.20;99.90;;;;;;5055441;28;20049;-66
2021/06/16 01:10:54;;;;;;;13.85;12.85;;;19.20;99.90;;;;;;5069120;28;20480;-67
2021/06/16 01:13:52;;;;;;;12.80;11.85;;;19.10;99.90;;;;;;5061079;28;20060;-67
2021/06/16 01:16:40;;;;;;;13.80;12.48;;;19.10;99.90;;;;;;5048952;28;20530;-67
2021/06/16 01:19:49;;;;;;;13.70;12.38;;;19.10;99.90;;;;;;5074991;28;20054;-66
2021/06/16 01:22:25;;;;;;;13.90;12.65;;;19.10;99.90;;;;;;5066239;28;20070;-67
2021/06/16 01:24:56;;;;;;;13.98;12.88;;;19.00;99.90;;;;;;5069374;28;20087;-67
2021/06/16 01:27:25;;;;;;;14.20;12.80;;;19.10;99.90;;;;;;5072839;28;20095;-67
2021/06/16 01:29:54;;;;;;;13.05;11.93;;;19.00;99.90;;;;;;5056428;28;20457;-67
2021/06/16 01:32:23;;;;;;;14.07;12.68;;;19.00;99.90;;;;;;5060279;28;20465;-67
2021/06/16 01:34:51;;;;;;;14.10;12.73;;;18.90;99.90;;;;;;5069731;28;20088;-67
2021/06/16 01:37:20;;;;;;;14.25;12.85;;;18.90;99.90;;;;;;5066760;28;20056;-67
2021/06/16 01:39:47;;;;;;;14.55;13.25;;;18.90;99.90;;;;;;5062721;28;20090;-67
2021/06/16 01:42:19;;;;;;;14.60;13.30;;;18.90;99.90;;;;;;5066911;28;20533;-67
2021/06/16 01:44:49;;;;;;;;;;;18.90;99.90;;;;;;5068599;28;20099;-67
2021/06/16 01:47:20;;;;;;;16.15;14.55;;;18.90;99.90;;;;;;5066470;28;20430;-67
2021/06/16 01:49:51;;;;;;;15.18;13.93;;;18.90;99.90;;;;;;5072771;28;20127;-67
2021/06/16 01:52:21;;;;;;;16.50;14.93;;;18.80;99.90;;;;;;5072908;28;20058;-67
2021/06/16 01:54:48;;;;;;;15.07;13.80;;;18.80;99.90;;;;;;5070269;28;20056;-67
2021/06/16 01:57:18;;;;;;;14.95;13.65;;;18.70;99.90;;;;;;5072320;28;20491;-67
2021/06/16 01:59:47;;;;;;;14.30;13.10;;;18.70;99.90;;;;;;5065786;28;20040;-67
2021/06/16 02:02:15;;;;;;;13.73;12.57;;;18.70;99.90;;;;;;5063272;28;20052;-67
2021/06/16 02:04:42;;;;;;;15.40;14.05;;;18.70;99.90;;;;;;5071515;28;20072;-67
2021/06/16 02:07:17;;;;;;;13.93;12.73;;;18.60;99.90;;;;;;5071371;28;20127;-67
2021/06/16 02:09:48;;;;;;;13.95;12.85;;;18.60;99.90;;;;;;5071694;28;20075;-67
2021/06/16 02:12:17;;;;;;;16.45;14.77;;;18.70;99.90;;;;;;5072571;28;20049;-67
2021/06/16 02:14:56;;;;;;;15.73;14.25;;;18.60;99.90;;;;;;5072170;28;20060;-67
2021/06/16 02:17:28;;;;;;;15.73;14.23;;;18.60;99.90;;;;;;5063329;28;20405;-67
2021/06/16 02:19:55;;;;;;;15.02;13.73;;;18.50;99.90;;;;;;5067862;28;20052;-67
2021/06/16 02:22:26;;;;;;;14.93;13.73;;;18.50;99.90;;;;;;5068579;28;20132;-67
2021/06/16 02:24:54;;;;;;;14.52;13.18;;;18.40;99.90;;;;;;5068314;28;20053;-67
2021/06/16 02:27:23;;;;;;;15.43;14.13;;;18.40;99.90;;;;;;5073528;28;20044;-67
2021/06/16 02:29:50;;;;;;;14.65;13.45;;;18.40;99.90;;;;;;5072456;28;20045;-67
2021/06/16 02:32:18;;;;;;;15.88;14.23;;;18.30;99.90;;;;;;5063716;28;20071;-67
2021/06/16 02:34:46;;;;;;;14.88;13.52;;;18.40;99.90;;;;;;5087335;28;20060;-67
2021/06/16 02:37:18;;;;;;;14.50;13.20;;;18.40;99.90;;;;;;5056653;28;20064;-67
2021/06/16 02:39:54;;;;;;;15.55;13.25;;;18.30;99.90;;;;;;5053625;28;20048;-67
2021/06/16 02:42:22;;;;;;;14.50;13.30;;;18.40;99.90;;;;;;5058879;28;20044;-67
2021/06/16 02:44:51;;;;;;;14.32;13.10;;;18.30;99.90;;;;;;5072421;28;20088;-67
2021/06/16 02:47:19;;;;;;;15.48;13.95;;;18.30;99.90;;;;;;5070657;28;20341;-67
2021/06/16 02:50:06;;;;;;;14.60;13.20;;;18.30;99.90;;;;;;5073189;28;20052;-67
2021/06/16 02:52:36;;;;;;;14.15;12.95;;;18.30;99.90;;;;;;5054154;28;20511;-67
2021/06/16 02:55:06;;;;;;;14.73;13.50;;;18.30;99.90;;;;;;5071611;28;20056;-67
2021/06/16 02:57:35;;;;;;;14.73;13.52;;;18.30;99.90;;;;;;5070466;28;20056;-67
2021/06/16 03:00:08;;;;;;;15.32;13.52;;;18.30;99.90;;;;;;5073433;28;20052;-67
2021/06/16 03:02:38;;;;;;;15.60;14.13;;;18.30;99.90;;;;;;5058612;28;20044;-67
2021/06/16 03:05:10;;;;;;;14.93;13.60;;;18.30;99.90;;;;;;5071622;28;20060;-67
2021/06/16 03:07:40;;;;;;;14.75;13.30;;;18.30;99.90;;;;;;5067602;28;20575;-67
2021/06/16 03:10:09;;;;;;;15.88;14.48;;;18.30;99.90;;;;;;5073044;28;20053;-67
2021/06/16 03:12:38;;;;;;;15.48;14.25;;;18.30;99.90;;;;;;5072167;28;20053;-67
2021/06/16 03:15:09;;;;;;;15.15;13.85;;;18.30;99.90;;;;;;5056194;28;20063;-67
2021/06/16 03:17:38;;;;;;;15.40;14.00;;;18.20;99.90;;;;;;5079254;28;20048;-67
2021/06/16 03:20:06;;;;;;;15.82;14.30;;;18.20;99.90;;;;;;5070512;28;20117;-67
2021/06/16 03:22:35;;;;;;;15.45;13.95;;;18.20;99.90;;;;;;5087098;28;20067;-67
2021/06/16 03:25:04;;;;;;;14.43;13.15;;;18.20;99.90;;;;;;5056714;28;20059;-67
2021/06/16 03:27:32;;;;;;;15.43;14.02;;;18.30;99.90;;;;;;5067097;28;20053;-67
2021/06/16 03:30:01;;;;;;;16.48;13.20;;;18.30;99.90;;;;;;5051567;28;20412;-67
2021/06/16 03:32:29;;;;;;;13.57;12.38;;;18.40;99.90;;;;;;5051845;28;20050;-67
2021/06/16 03:34:57;;;;;;;15.40;13.90;;;18.40;99.90;;;;;;5065970;28;20528;-67
2021/06/16 03:37:26;;;;;;;14.82;13.52;;;18.50;99.90;;;;;;5070783;28;20056;-67
2021/06/16 03:39:54;;;;;;;15.43;13.75;;;18.50;99.90;;;;;;5071582;28;20517;-67
2021/06/16 03:42:23;;;;;;;15.30;13.35;;;18.50;99.90;;;;;;5066052;28;20048;-67
2021/06/16 03:44:53;;;;;;;14.32;13.02;;;18.60;99.90;;;;;;5058643;28;20106;-67
2021/06/16 03:47:22;;;;;;;15.20;13.73;;;18.70;99.90;;;;;;5066067;28;20037;-67
2021/06/16 03:49:52;;;;;;;15.50;13.98;;;18.70;99.90;;;;;;5071680;28;20044;-67
2021/06/16 03:52:21;;;;;;;14.25;13.00;;;18.80;99.90;;;;;;5070627;28;20056;-67
2021/06/16 03:54:50;;;;;;;15.32;13.60;;;18.90;99.90;;;;;;5070887;28;20072;-67
2021/06/16 03:57:19;;;;;;;15.43;14.02;;;19.00;99.90;;;;;;5068763;28;20130;-67
2021/06/16 03:59:48;;;;;;;15.80;13.98;;;19.10;99.90;;;;;;5071095;28;20525;-66
2021/06/16 04:02:17;;;;;;;17.05;14.15;;;19.10;99.90;;;;;;5066404;28;20053;-66
2021/06/16 04:04:45;;;;;;;15.70;14.20;;;19.20;99.90;;;;;;5070393;28;20384;-66
2021/06/16 04:07:19;;;;;;;16.20;14.77;;;19.20;99.90;;;;;;5065705;28;20091;-66
2021/06/16 04:09:52;;;;;;;15.05;13.50;;;19.30;99.90;;;;;;5068112;28;20048;-67
2021/06/16 04:12:21;;;;;;;14.82;13.50;;;19.40;99.90;;;;;;5069747;28;20049;-66
2021/06/16 04:14:50;;;;;;;14.90;13.70;;;19.50;99.90;;;;;;5059788;28;20056;-66
2021/06/16 04:17:19;;;;;;;15.55;14.15;;;19.60;99.90;;;;;;5067117;28;20102;-67
2021/06/16 04:19:47;;;;;;;16.27;14.75;;;19.70;99.90;;;;;;5069244;28;20052;-68
2021/06/16 04:22:15;;;;;;;16.33;14.85;;;19.70;99.90;;;;;;5070526;28;20060;-66
2021/06/16 04:24:43;;;;;;;16.38;14.85;;;19.80;99.90;;;;;;5064537;28;20411;-67
2021/06/16 04:27:12;;;;;;;14.93;13.63;;;19.90;99.90;;;;;;5070688;28;20044;-67
2021/06/16 04:29:41;;;;;;;17.30;13.85;;;19.90;99.90;;;;;;5056337;28;20048;-67
2021/06/16 04:32:11;;;;;;;16.17;14.73;;;20.00;99.90;;;;;;5059229;28;20517;-67
2021/06/16 04:34:39;;;;;;;22.33;20.02;;;20.20;99.90;;;;;;5060993;28;20496;-67
2021/06/16 04:37:07;;;;;;;18.90;17.10;;;20.20;99.90;;;;;;5053508;28;20049;-67
2021/06/16 04:39:34;;;;;;;16.80;15.23;;;20.20;99.90;;;;;;5068627;28;20517;-67
2021/06/16 04:42:03;;;;;;;16.45;14.82;;;20.30;99.90;;;;;;5066744;28;20065;-67
2021/06/16 04:44:30;;;;;;;17.30;15.60;;;20.40;99.90;;;;;;5067394;28;20060;-67
2021/06/16 04:46:58;;;;;;;16.40;14.77;;;20.40;99.90;;;;;;5064394;28;20078;-67
2021/06/16 04:49:26;;;;;;;16.80;15.18;;;20.50;99.90;;;;;;5070433;28;20441;-67
2021/06/16 04:51:54;;;;;;;14.70;13.60;;;20.50;99.90;;;;;;5070428;28;20048;-67
2021/06/16 04:54:21;;;;;;;16.80;15.02;;;20.50;99.90;;;;;;5070128;28;20053;-67
2021/06/16 04:56:48;;;;;;;15.85;14.25;;;20.50;99.90;;;;;;5059664;28;20446;-67
2021/06/16 04:59:15;;;;;;;17.85;16.05;;;20.60;99.90;;;;;;5078756;28;20049;-67
2021/06/16 05:01:43;;;;;;;18.00;16.10;;;20.70;99.90;;;;;;5066008;28;20049;-67
2021/06/16 05:04:10;;;;;;;16.38;14.77;;;20.60;99.90;;;;;;5064181;28;20055;-67
2021/06/16 05:06:38;;;;;;;16.60;14.88;;;20.70;99.90;;;;;;5065576;28;20048;-67
2021/06/16 05:09:05;;;;;;;16.75;14.23;;;20.70;99.90;;;;;;5064490;28;20495;-67
2021/06/16 05:11:32;;;;;;;16.40;14.70;;;20.80;99.90;;;;;;5061907;28;20044;-67
2021/06/16 05:14:00;;;;;;;19.30;17.40;;;20.80;99.90;;;;;;5074014;28;20564;-67
2021/06/16 05:16:27;;;;;;;18.60;16.70;;;20.80;99.90;;;;;;5073768;28;20110;-67
2021/06/16 05:18:56;;;;;;;17.80;16.15;;;20.80;99.90;;;;;;5055166;28;20059;-67
2021/06/16 05:21:28;;;;;;;16.00;14.40;;;20.80;99.90;;;;;;5068623;28;20143;-67
2021/06/16 05:23:56;;;;;;;16.30;14.80;;;20.80;99.90;;;;;;5061370;28;20410;-67
2021/06/16 05:26:24;;;;;;;19.75;17.80;;;20.90;99.90;;;;;;5069946;28;20056;-67
2021/06/16 05:28:51;;;;;;;17.70;15.90;;;20.80;99.90;;;;;;5072804;28;20048;-67
2021/06/16 05:31:18;;;;;;;15.73;14.35;;;20.80;99.90;;;;;;5068846;28;20052;-67
2021/06/16 05:33:46;;;;;;;16.13;14.77;;;20.90;99.90;;;;;;5068707;28;20132;-67
2021/06/16 05:36:14;;;;;;;16.38;14.88;;;20.90;99.90;;;;;;5054444;28;20056;-67
2021/06/16 05:38:41;;;;;;;15.40;14.10;;;20.90;99.90;;;;;;5082980;28;20363;-67
2021/06/16 05:41:12;;;;;;;15.48;14.07;;;21.00;99.90;;;;;;5069837;28;20539;-67
2021/06/16 05:43:39;;;;;;;16.55;15.05;;;21.00;99.90;;;;;;5066522;28;20429;-67
2021/06/16 05:46:07;;;;;;;14.48;13.27;;;21.10;99.90;;;;;;5057580;28;20110;-67
2021/06/16 05:48:34;;;;;;;15.10;13.63;;;21.10;99.90;;;;;;5053328;28;20036;-67
2021/06/16 05:51:01;;;;;;;14.73;13.43;;;21.20;99.90;;;;;;5061896;28;20474;-68
2021/06/16 05:53:30;;;;;;;15.65;14.05;;;21.30;99.90;;;;;;5063489;28;20102;-68
2021/06/16 05:55:57;;;;;;;16.60;14.55;;;21.30;99.90;;;;;;5072861;28;20506;-67
2021/06/16 05:58:24;;;;;;;16.55;14.90;;;21.40;99.90;;;;;;5071834;28;20118;-66
2021/06/16 06:00:52;;;;;;;16.42;14.27;;;21.40;99.90;;;;;;5072335;28;20131;-66
2021/06/16 06:03:19;;;;;;;15.57;14.10;;;21.40;99.90;;;;;;5073153;28;20483;-67
2021/06/16 06:05:49;;;;;;;16.08;14.40;;;21.50;99.90;;;;;;5073371;28;20091;-66
2021/06/16 06:08:16;;;;;;;17.20;15.63;;;21.60;99.90;;;;;;5072813;28;20041;-66
2021/06/16 06:10:43;;;;;;;16.83;14.90;;;21.80;99.90;;;;;;5073525;28;20045;-66
2021/06/16 06:13:10;;;;;;;16.70;14.88;;;21.90;99.90;;;;;;5072547;28;20044;-66
2021/06/16 06:15:38;;;;;;;15.70;14.15;;;21.90;99.90;;;;;;5073007;28;20079;-66
2021/06/16 06:18:05;;;;;;;16.63;14.77;;;22.00;99.90;;;;;;5072763;28;20468;-66
2021/06/16 06:20:33;;;;;;;18.30;14.43;;;22.20;99.90;;;;;;5072370;28;20098;-66
2021/06/16 06:23:01;;;;;;;21.08;16.60;;;22.20;99.90;;;;;;5072659;28;20131;-66
2021/06/16 06:25:28;;;;;;;17.13;15.40;;;22.40;99.90;;;;;;5073049;28;20402;-66
2021/06/16 06:27:55;;;;;;;17.42;15.82;;;22.40;99.90;;;;;;5070722;28;20064;-66
2021/06/16 06:30:23;;;;;;;16.25;14.68;;;22.50;99.90;;;;;;5072952;28;20498;-66
2021/06/16 06:32:50;;;;;;;19.73;15.93;;;22.70;99.90;;;;;;5072207;28;20060;-66
2021/06/16 06:35:17;;;;;;;15.57;14.10;;;22.80;99.90;;;;;;5072343;28;20045;-66
2021/06/16 06:37:45;;;;;;;15.55;14.18;;;22.90;99.90;;;;;;5058723;28;20044;-66
2021/06/16 06:40:13;;;;;;;15.05;13.63;;;23.10;99.90;;;;;;5061450;28;20048;-66
2021/06/16 06:42:40;;;;;;;17.17;15.20;;;23.30;99.90;;;;;;5068895;28;20079;-66
2021/06/16 06:45:08;;;;;;;15.77;14.27;;;23.30;99.90;;;;;;5062824;28;20052;-66
2021/06/16 06:47:37;;;;;;;14.98;13.48;;;23.40;99.90;;;;;;5066588;28;20466;-66
2021/06/16 06:50:11;;;;;;;17.50;14.27;;;23.50;99.90;;;;;;5068394;28;20083;-66
2021/06/16 06:52:40;;;;;;;15.05;13.48;;;23.50;99.90;;;;;;5055705;28;20518;-66
2021/06/16 06:55:08;;;;;;;13.93;12.73;;;23.40;99.90;;;;;;5062888;28;20052;-66
2021/06/16 06:57:38;;;;;;;14.70;13.30;;;23.50;99.90;;;;;;5066832;28;20044;-66
2021/06/16 07:00:07;;;;;;;15.27;13.80;;;23.60;99.90;;;;;;5060367;28;20064;-66
2021/06/16 07:02:36;;;;;;;13.63;12.52;;;23.60;99.90;;;;;;5058480;28;20527;-66
2021/06/16 07:05:05;;;;;;;14.63;13.13;;;23.70;99.90;;;;;;5065824;28;20076;-65
2021/06/16 07:07:32;;;;;;;15.48;13.48;;;23.90;99.90;;;;;;5070260;28;20526;-65
2021/06/16 07:09:59;;;;;;;13.60;12.45;;;24.00;99.90;;;;;;5058324;28;20048;-65
2021/06/16 07:12:27;;;;;;;14.32;13.10;;;24.20;99.90;;;;;;5060856;28;20557;-65
2021/06/16 07:14:55;;;;;;;13.93;12.68;;;24.30;99.90;;;;;;5068926;28;20048;-65
2021/06/16 07:17:23;;;;;;;14.20;12.90;;;24.50;99.90;;;;;;5061621;28;20072;-65
2021/06/16 07:19:51;;;;;;;15.02;13.52;;;24.60;99.90;;;;;;5071161;28;20127;-65
2021/06/16 07:22:20;;;;;;;15.82;14.18;;;24.70;99.90;;;;;;5070307;28;20051;-65
2021/06/16 07:24:47;;;;;;;15.07;13.68;;;24.50;99.90;;;;;;5058488;28;20454;-65
2021/06/16 07:27:16;;;;;;;14.10;12.85;;;24.70;99.90;;;;;;5077709;28;20526;-65
2021/06/16 07:29:43;;;;;;;14.95;13.40;;;24.90;99.90;;;;;;5069680;28;20486;-65
2021/06/16 07:32:10;;;;;;;16.73;14.35;;;25.10;99.90;;;;;;5048400;28;20111;-65
2021/06/16 07:34:38;;;;;;;16.15;14.45;;;25.10;99.90;;;;;;5059570;28;20425;-65
2021/06/16 07:37:06;;;;;;;15.73;14.32;;;25.10;99.90;;;;;;5071153;28;20072;-65
2021/06/16 07:39:33;;;;;;;15.35;14.02;;;25.20;99.90;;;;;;5056592;28;20523;-65
2021/06/16 07:42:02;;;;;;;14.38;13.00;;;25.30;99.90;;;;;;5070898;28;20048;-65
2021/06/16 07:44:30;;;;;;;17.02;15.07;;;25.50;99.90;;;;;;5062305;28;20050;-65
2021/06/16 07:46:58;;;;;;;16.85;14.65;;;25.70;99.90;;;;;;5070280;28;20135;-65
2021/06/16 07:49:25;;;;;;;15.75;14.15;;;25.70;99.90;;;;;;5054416;28;20048;-65
2021/06/16 07:51:53;;;;;;;15.57;13.85;;;25.70;99.90;;;;;;5061227;28;20052;-65
2021/06/16 07:54:21;;;;;;;16.02;14.15;;;25.80;99.90;;;;;;5057701;28;20143;-65
2021/06/16 07:56:48;;;;;;;14.23;13.02;;;26.00;99.90;;;;;;5070816;28;20057;-65
2021/06/16 07:59:17;;;;;;;20.38;18.25;;;26.10;99.90;;;;;;5068832;28;20056;-65
2021/06/16 08:01:44;;;;;;;16.38;14.88;;;26.20;99.90;;;;;;5062714;28;20049;-65
2021/06/16 08:04:12;;;;;;;14.68;13.20;;;26.40;99.90;;;;;;5069814;28;20045;-65
2021/06/16 08:06:39;;;;;;;15.50;14.05;;;26.50;99.90;;;;;;5080154;28;20052;-65
2021/06/16 08:09:07;;;;;;;14.70;13.50;;;26.60;99.90;;;;;;5069965;28;20090;-65
2021/06/16 08:11:34;;;;;;;16.98;15.27;;;26.70;99.90;;;;;;5066818;28;20474;-67
2021/06/16 08:14:01;;;;;;;15.15;13.55;;;26.80;99.90;;;;;;5061238;28;20076;-65
2021/06/16 08:16:29;;;;;;;14.90;13.48;;;26.80;99.90;;;;;;5068921;28;20052;-65
2021/06/16 08:18:56;;;;;;;14.40;13.30;;;26.80;99.90;;;;;;5069641;28;20048;-65
2021/06/16 08:21:24;;;;;;;15.30;13.77;;;26.80;99.90;;;;;;5051437;28;20164;-65
2021/06/16 08:23:51;;;;;;;16.00;14.48;;;26.90;99.90;;;;;;5069690;28;20052;-65
2021/06/16 08:26:19;;;;;;;15.23;13.73;;;26.70;99.90;;;;;;5077106;28;20048;-65
2021/06/16 08:28:46;;;;;;;14.57;13.18;;;27.00;99.90;;;;;;5066812;28;20128;-65
2021/06/16 08:31:14;;;;;;;14.48;12.98;;;27.20;99.90;;;;;;5069963;28;20396;-65
2021/06/16 08:33:41;;;;;;;15.15;13.77;;;27.30;99.90;;;;;;5069313;28;20075;-65
2021/06/16 08:36:10;;;;;;;14.00;12.68;;;27.60;99.90;;;;;;5064038;28;20055;-65
2021/06/16 08:38:37;;;;;;;15.27;13.88;;;27.80;99.90;;;;;;5063546;28;20101;-65
2021/06/16 08:41:07;;;;;;;14.88;13.32;;;28.00;99.90;;;;;;5070256;28;20052;-65
2021/06/16 08:43:52;;;;;;;15.90;14.27;;;28.10;99.90;;;;;;5067285;28;20091;-65
2021/06/16 08:46:20;;;;;;;15.30;13.60;;;28.00;99.90;;;;;;5066649;28;20128;-65
2021/06/16 08:48:48;;;;;;;14.07;12.88;;;27.80;99.90;;;;;;5069618;28;20491;-65
2021/06/16 08:51:16;;;;;;;13.73;12.70;;;28.00;99.90;;;;;;5069370;28;20076;-65
2021/06/16 08:53:44;;;;;;;13.65;12.45;;;28.20;99.90;;;;;;5069547;28;20097;-65
2021/06/16 08:56:12;;;;;;;14.25;12.90;;;28.40;99.90;;;;;;5068324;28;20102;-65
2021/06/16 08:58:41;;;;;;;14.55;13.05;;;28.60;99.90;;;;;;5084783;28;20131;-65
2021/06/16 09:01:10;;;;;;;14.38;13.10;;;28.70;99.90;;;;;;5066950;28;20148;-66
2021/06/16 09:03:38;;;;;;;15.05;13.50;;;28.80;99.90;;;;;;5068965;28;20051;-65
2021/06/16 09:06:10;;;;;;;14.35;13.05;;;29.00;99.90;;;;;;5063462;28;20095;-65
2021/06/16 09:08:51;;;;;;;14.38;12.90;;;29.10;99.90;;;;;;5069514;28;20049;-66
2021/06/16 09:11:20;;;;;;;13.77;12.55;;;29.10;99.90;;;;;;5065919;28;20102;-65
2021/06/16 09:13:47;;;;;;;14.00;12.73;;;29.10;99.90;;;;;;5066324;28;20098;-65
2021/06/16 09:16:31;;;;;;;13.77;12.65;;;29.20;99.90;;;;;;5069399;28;20630;-65
2021/06/16 09:18:59;;;;;;;13.75;12.45;;;29.20;99.90;;;;;;5063103;28;20102;-65
2021/06/16 09:21:32;;;;;;;13.85;12.65;;;29.20;99.90;;;;;;5069915;28;20148;-65
2021/06/16 09:23:59;;;;;;;13.48;12.27;;;29.30;99.90;;;;;;5069446;28;20525;-65
2021/06/16 09:26:40;;;;;;;14.43;12.95;;;29.40;99.90;;;;;;5069119;28;20151;-65
2021/06/16 09:29:08;;;;;;;13.65;12.48;;;29.40;99.90;;;;;;5061430;28;20554;-65
2021/06/16 09:31:43;;;;;;;13.95;12.75;;;29.40;99.90;;;;;;5064682;28;20139;-65
2021/06/16 09:34:13;;;;;;;14.25;12.95;;;29.50;99.90;;;;;;5068394;28;20123;-65
2021/06/16 09:36:51;;;;;;;13.98;12.55;;;29.60;99.90;;;;;;5059105;28;20059;-64
2021/06/16 09:39:24;;;;;;;13.20;12.05;;;29.70;99.90;;;;;;5052606;28;20127;-65
2021/06/16 09:42:14;;;;;;;16.30;13.52;;;29.90;99.90;;;;;;5069341;28;20099;-65
2021/06/16 09:44:47;;;;;;;13.95;12.57;;;30.00;99.70;;;;;;5057137;28;20049;-65
2021/06/16 09:47:18;;;;;;;13.88;12.73;;;29.90;99.70;;;;;;5068804;28;20167;-64
2021/06/16 09:50:06;;;;;;;14.63;13.30;;;29.80;99.90;;;;;;5069315;28;20040;-65
2021/06/16 09:52:40;;;;;;;14.75;13.45;;;30.00;99.60;;;;;;5066022;28;20049;-65
2021/06/16 09:55:13;;;;;;;14.23;12.80;;;30.10;99.00;;;;;;5072463;28;20106;-65
2021/06/16 09:58:01;;;;;;;14.48;13.00;;;30.20;98.90;;;;;;5072086;28;20049;-65
2021/06/16 10:00:40;;;;;;;14.57;13.10;;;30.20;98.40;;;;;;5069136;28;20063;-65
2021/06/16 10:03:11;;;;;;;14.98;13.52;;;30.20;97.70;;;;;;5070578;28;20506;-65
2021/06/16 10:06:16;;;;;;;15.15;13.50;;;30.00;97.70;;;;;;5066253;28;20151;-65
2021/06/16 10:08:52;;;;;;;14.93;13.20;;;29.90;97.70;;;;;;5073287;28;20464;-65
2021/06/16 10:11:23;;;;;;;13.80;12.65;;;30.10;97.80;;;;;;5067605;28;20072;-65
2021/06/16 10:13:50;;;;;;;14.80;13.37;;;30.50;97.50;;;;;;5070919;28;20466;-65
2021/06/16 10:16:17;;;;;;;15.68;14.20;;;30.80;96.40;;;;;;5083198;28;20561;-66
2021/06/16 10:18:47;;;;;;;13.52;12.02;;;31.20;95.90;;;;;;5060573;28;20041;-66
2021/06/16 10:21:16;;;;;;;13.30;12.05;;;31.10;92.30;;;;;;5071975;28;20473;-65
2021/06/16 10:23:44;;;;;;;13.32;12.07;;;30.90;91.90;;;;;;5065416;28;20171;-65
2021/06/16 10:26:31;;;;;;;12.88;11.68;;;30.90;91.50;;;;;;5066768;28;20079;-64
2021/06/16 10:29:02;;;;;;;13.68;12.57;;;31.30;90.50;;;;;;5061190;28;20170;-64
2021/06/16 10:31:40;;;;;;;13.23;12.23;;;31.40;90.70;;;;;;5071681;28;20048;-64
2021/06/16 10:34:09;;;;;;;13.43;12.40;;;31.50;89.80;;;;;;5065994;28;20049;-65
2021/06/16 10:36:36;;;;;;;13.27;12.23;;;31.70;88.70;;;;;;5062435;28;20056;-65
2021/06/16 10:39:09;;;;;;;12.63;11.63;;;31.80;87.70;;;;;;5051891;28;20080;-65
2021/06/16 10:41:48;;;;;;;12.65;11.65;;;31.80;87.10;;;;;;5052424;28;20143;-65
2021/06/16 10:44:21;;;;;;;13.55;12.45;;;32.20;87.90;;;;;;5068868;28;20113;-65
2021/06/16 10:46:59;;;;;;;12.57;11.68;;;32.60;85.70;;;;;;5070183;28;20041;-65
2021/06/16 10:49:36;;;;;;;12.90;11.90;;;32.20;85.00;;;;;;5060972;28;20460;-65
2021/06/16 10:52:04;;;;;;;13.15;11.73;;;32.00;84.70;;;;;;5071056;28;20072;-65
2021/06/16 10:54:33;;;;;;;12.20;11.20;;;32.00;84.30;;;;;;5065539;28;20138;-65
2021/06/16 10:57:04;;;;;;;12.63;11.73;;;32.50;84.10;;;;;;5071354;28;20419;-65
2021/06/16 10:59:48;;;;;;;;;;;33.10;82.90;;;;;;5069148;28;20053;-65
2021/06/16 11:02:38;;;;;;;13.43;12.32;;;33.00;82.50;;;;;;5072234;28;19927;-65
2021/06/16 11:05:31;;;;;;;13.57;12.27;;;32.90;82.70;;;;;;5051781;28;20538;-65
2021/06/16 11:08:00;;;;;;;13.73;12.60;;;33.00;81.50;;;;;;5062488;28;20074;-65
2021/06/16 11:10:56;;;;;;;13.10;12.10;;;32.70;82.90;;;;;;5065724;28;20577;-65
2021/06/16 11:13:41;;;;;;;13.27;11.90;;;32.60;81.60;;;;;;5070443;28;20033;-65
2021/06/16 11:16:53;;;;;;;13.82;12.20;;;32.60;80.90;;;;;;5071030;28;20057;-65
2021/06/16 11:19:26;;;;;;;13.23;12.32;;;32.70;81.10;;;;;;5060626;28;20063;-65
2021/06/16 11:21:57;;;;;;;13.63;12.50;;;33.00;80.00;;;;;;5070200;28;20053;-64
2021/06/16 11:25:02;;;;;;;14.00;12.75;;;33.40;80.70;;;;;;5066788;28;20040;-65
2021/06/16 11:27:51;;;;;;;12.93;11.82;;;33.70;79.30;;;;;;5071926;28;20099;-64
2021/06/16 11:30:30;;;;;;;13.40;12.40;;;33.40;80.00;;;;;;5072480;28;20453;-65
2021/06/16 11:33:16;;;;;;;12.90;11.90;;;33.70;79.30;;;;;;5063247;28;20442;-64
2021/06/16 11:35:51;;;;;;;13.27;12.27;;;34.40;78.00;;;;;;5067576;28;20044;-66
2021/06/16 11:38:21;;;;;;;13.10;12.02;;;35.00;77.20;;;;;;5051332;28;20107;-66
2021/06/16 11:41:12;;;;;;;12.57;11.63;;;35.60;75.90;;;;;;5061140;28;20460;-64
2021/06/16 11:43:46;;;;;;;13.17;12.23;;;36.00;75.40;;;;;;5055846;28;20128;-65
2021/06/16 11:46:35;;;;;;;13.55;12.35;;;36.40;73.70;;;;;;5058111;28;20411;-65
2021/06/16 11:49:24;;;;;;;14.05;12.55;;;36.70;72.20;;;;;;5069250;28;20052;-65
2021/06/16 11:52:00;;;;;;;12.90;11.73;;;37.10;70.30;;;;;;5061150;28;20407;-65
2021/06/16 11:54:40;;;;;;;13.25;12.25;;;37.10;69.70;;;;;;5067331;28;20063;-65
2021/06/16 11:57:11;;;;;;;12.75;11.75;;;36.10;69.30;;;;;;5070598;28;20061;-66
2021/06/16 11:59:48;;;;;;;12.77;11.75;;;35.90;69.70;;;;;;5056900;28;20082;-65
2021/06/16 12:02:23;;;;;;;13.77;11.45;;;35.90;69.20;;;;;;5063032;28;20037;-65
2021/06/16 12:05:02;;;;;;;12.60;11.40;;;35.90;69.00;;;;;;5068941;28;20098;-65
2021/06/16 12:07:44;;;;;;;12.90;11.80;;;35.70;68.40;;;;;;5070280;28;20071;-65
2021/06/16 12:10:26;;;;;;;12.25;11.20;;;36.10;68.20;;;;;;5057726;28;20059;-65
2021/06/16 12:12:54;;;;;;;;;;;36.30;67.00;;;;;;5056021;28;20436;-67
2021/06/16 12:15:33;;;;;;;11.82;10.85;;;36.30;67.10;;;;;;5069826;28;20382;-67
2021/06/16 12:18:04;;;;;;;12.32;11.52;;;36.90;65.90;;;;;;5060728;28;20115;-66
2021/06/16 12:20:38;;;;;;;11.70;10.90;;;36.70;65.30;;;;;;5070250;28;20055;-65
2021/06/16 12:23:32;;;;;;;12.63;11.70;;;35.80;66.40;;;;;;5068466;28;20072;-66
2021/06/16 12:26:15;;;;;;;13.57;12.57;;;36.00;66.60;;;;;;5074586;28;20044;-66
2021/06/16 12:28:48;;;;;;;13.32;12.35;;;35.80;67.40;;;;;;5054526;28;20062;-66
2021/06/16 12:31:26;;;;;;;14.98;13.68;;;35.90;67.40;;;;;;5069949;28;20487;-65
2021/06/16 12:36:28;;;;;;;13.25;12.15;;;35.30;65.80;;;;;;5061719;28;20059;-65
2021/06/16 12:39:10;;;;;;;13.95;12.95;;;35.20;65.50;;;;;;5049143;28;20099;-65
2021/06/16 12:42:01;;;;;;;12.30;11.50;;;35.20;66.20;;;;;;5050679;28;20489;-65
2021/06/16 12:44:43;;;;;;;14.10;13.10;;;35.10;65.70;;;;;;5068061;28;20045;-65
2021/06/16 12:47:12;;;;;;;13.88;12.80;;;35.30;65.90;;;;;;5068389;28;20462;-65
2021/06/16 12:49:43;;;;;;;13.02;11.98;;;35.60;66.50;;;;;;5056466;28;20127;-65
2021/06/16 12:52:13;;;;;;;12.35;11.45;;;35.50;65.50;;;;;;5069164;28;20055;-65